Time;durP1;ratioP1;P1;durP2;ratioP2;P2;SDS_P1;SDS_P2;PMS_P1;PMS_P2;Temp;Humidity;BMP_temperature;BMP_pressure;BME280_temperature;BME280_humidity;BME280_pressure;Samples;Min_cycle;Max_cycle;Signal;HPM_P1;HPM_P2
2022/05/09 00:00:13;;;;;;;2.10;1.80;;;;;;;13.04;67.47;99430.69;104592;1274;74508;-25
2022/05/09 00:02:42;;;;;;;3.40;1.70;;;;;;;12.87;67.87;99434.73;104674;1274;76383;-26
2022/05/09 00:05:13;;;;;;;2.70;1.80;;;;;;;12.69;68.81;99432.59;104600;1274;74151;-26
2022/05/09 00:07:42;;;;;;;3.80;1.60;;;;;;;12.54;69.88;99437.36;104723;1274;61914;-26
2022/05/09 00:10:16;;;;;;;2.80;1.80;;;;;;;12.37;70.61;99435.23;104717;1274;62150;-25
2022/05/09 00:12:45;;;;;;;4.10;1.50;;;;;;;12.28;71.54;99434.45;104722;1274;75695;-25
2022/05/09 00:15:16;;;;;;;3.30;1.40;;;;;;;12.83;69.77;99434.42;104912;1274;77342;-26
2022/05/09 00:18:03;;;;;;;4.60;1.60;;;;;;;13.48;67.59;99435.13;104628;1274;74828;-26
2022/05/09 00:20:32;;;;;;;2.00;1.60;;;;;;;13.58;66.74;99436.04;104705;1274;61873;-25
2022/05/09 00:23:02;;;;;;;5.00;1.80;;;;;;;13.45;66.90;99440.99;104620;1274;62065;-26
2022/05/09 00:25:31;;;;;;;2.60;1.70;;;;;;;13.23;67.74;99440.10;104602;1274;75561;-26
2022/05/09 00:28:00;;;;;;;3.60;1.80;;;;;;;13.01;68.54;99438.48;104740;1277;76004;-26
2022/05/09 00:30:29;;;;;;;5.30;2.00;;;;;;;12.81;69.10;99437.84;104822;1277;74327;-25
2022/05/09 00:32:58;;;;;;;3.60;2.00;;;;;;;12.61;69.85;99440.73;104774;1274;61134;-26
2022/05/09 00:35:27;;;;;;;2.90;1.70;;;;;;;12.47;70.28;99435.13;104701;1277;61901;-25
2022/05/09 00:37:56;;;;;;;4.20;1.20;;;;;;;12.35;71.10;99440.30;104841;1274;75364;-26
2022/05/09 00:40:26;;;;;;;3.10;1.70;;;;;;;12.73;70.25;99434.39;104738;1274;75793;-26
2022/05/09 00:42:55;;;;;;;1.80;1.50;;;;;;;13.27;68.16;99438.71;104839;1274;74190;-26
2022/05/09 00:45:25;;;;;;;1.80;1.60;;;;;;;13.30;67.76;99439.30;104892;1274;61909;-25
2022/05/09 00:47:54;;;;;;;3.50;1.60;;;;;;;13.15;68.26;99437.98;104690;1274;62039;-25
2022/05/09 00:50:26;;;;;;;3.90;1.90;;;;;;;12.94;68.80;99442.71;104891;1274;75700;-25
2022/05/09 00:52:59;;;;;;;4.20;1.60;;;;;;;12.72;69.45;99440.71;104717;1274;76440;-26
2022/05/09 00:55:40;;;;;;;5.10;2.30;;;;;;;12.51;70.74;99438.26;104657;1274;74144;-25
2022/05/09 00:58:43;;;;;;;2.70;2.00;;;;;;;12.35;71.30;99441.84;104661;1274;61163;-25
2022/05/09 01:01:13;;;;;;;1.90;1.40;;;;;;;12.30;71.68;99442.48;104646;1274;61112;-25
2022/05/09 01:03:58;;;;;;;3.20;1.70;;;;;;;12.88;70.38;99444.45;104600;1274;75543;-26
2022/05/09 01:06:29;;;;;;;2.30;1.50;;;;;;;13.31;68.77;99445.55;104734;1274;74374;-25
2022/05/09 01:08:57;;;;;;;9.40;1.90;;;;;;;13.28;68.39;99448.36;104871;1274;74442;-25
2022/05/09 01:11:27;;;;;;;2.90;1.80;;;;;;;13.10;68.97;99448.34;104865;1274;61102;-27
2022/05/09 01:14:22;;;;;;;3.40;1.70;;;;;;;12.81;69.86;99454.42;104576;1274;62259;-27
2022/05/09 01:16:58;;;;;;;3.40;1.70;;;;;;;12.60;70.18;99458.98;104677;1274;75535;-25
2022/05/09 01:19:30;;;;;;;7.80;1.80;;;;;;;12.43;71.15;99454.06;104635;1274;76347;-26
2022/05/09 01:21:59;;;;;;;2.20;1.60;;;;;;;12.29;71.60;99454.91;104626;1277;72917;-25
2022/05/09 01:24:29;;;;;;;2.90;1.10;;;;;;;12.18;71.85;99455.45;104605;1274;62847;-26
2022/05/09 01:26:57;;;;;;;3.30;1.50;;;;;;;12.67;71.05;99458.91;104682;1274;62030;-24
2022/05/09 01:29:32;;;;;;;4.00;1.90;;;;;;;13.16;69.19;99462.14;104692;1274;75587;-24
2022/05/09 01:32:01;;;;;;;1.90;1.60;;;;;;;13.25;68.51;99461.33;104647;1277;74996;-25
2022/05/09 01:34:30;;;;;;;2.80;1.80;;;;;;;13.18;68.37;99460.41;104750;1274;74420;-27
2022/05/09 01:37:03;;;;;;;4.20;1.70;;;;;;;13.00;68.69;99458.70;104715;1274;61993;-28
2022/05/09 01:39:33;;;;;;;2.80;1.70;;;;;;;12.80;69.45;99460.27;104618;1274;61198;-26
2022/05/09 01:42:04;;;;;;;2.50;1.70;;;;;;;12.60;69.88;99461.44;104707;1277;75569;-26
2022/05/09 01:44:34;;;;;;;2.10;1.70;;;;;;;12.36;71.75;99467.02;104661;1274;75997;-28
2022/05/09 01:49:51;;;;;;;1.90;1.30;;;;;;;12.74;70.96;99466.35;104732;1274;61161;-28
2022/05/09 01:52:21;;;;;;;2.50;1.60;;;;;;;13.18;69.34;99463.83;104789;1274;62318;-28
2022/05/09 01:54:50;;;;;;;2.70;1.80;;;;;;;13.24;68.91;99461.75;104747;1274;74704;-26
2022/05/09 01:57:19;;;;;;;3.00;2.00;;;;;;;13.12;69.23;99465.41;104746;1274;76087;-27
2022/05/09 01:59:48;;;;;;;2.60;2.00;;;;;;;12.92;69.66;99468.14;104920;1274;74062;-27
2022/05/09 02:02:19;;;;;;;3.00;1.80;;;;;;;12.72;70.33;99470.20;104754;1274;62235;-28
2022/05/09 02:04:51;;;;;;;3.40;2.10;;;;;;;12.42;72.33;99471.71;104686;1274;61069;-28
2022/05/09 02:07:23;;;;;;;3.80;2.10;;;;;;;12.24;73.47;99478.23;104690;1274;75583;-28
2022/05/09 02:09:52;;;;;;;3.00;1.50;;;;;;;12.13;74.34;99479.19;104679;1274;74153;-29
2022/05/09 02:12:21;;;;;;;2.70;1.50;;;;;;;12.65;72.68;99481.72;104709;1274;72929;-28
2022/05/09 02:14:50;;;;;;;2.30;1.70;;;;;;;13.15;70.76;99474.38;104905;1274;61611;-28
2022/05/09 02:17:19;;;;;;;1.90;1.70;;;;;;;13.16;70.32;99480.04;104919;1274;61189;-27
2022/05/09 02:19:48;;;;;;;3.20;2.10;;;;;;;12.89;71.29;99479.56;104743;1274;74161;-27
2022/05/09 02:22:18;;;;;;;7.30;2.00;;;;;;;12.59;72.64;99481.02;104628;1274;74842;-24
2022/05/09 02:24:47;;;;;;;3.50;2.30;;;;;;;12.47;73.23;99481.15;104592;1274;73360;-25
2022/05/09 02:27:18;;;;;;;3.30;2.40;;;;;;;12.25;74.34;99484.96;104659;1274;62008;-25
2022/05/09 02:29:48;;;;;;;3.70;1.30;;;;;;;12.09;75.08;99481.93;104686;1277;61505;-25
2022/05/09 02:32:17;;;;;;;2.10;1.80;;;;;;;12.52;73.94;99486.43;104712;1277;75612;-25
2022/05/09 02:34:46;;;;;;;2.70;1.90;;;;;;;12.96;72.21;99480.04;104702;1274;75121;-25
2022/05/09 02:37:15;;;;;;;3.50;2.10;;;;;;;12.82;72.53;99487.63;104872;1274;74470;-25
2022/05/09 02:39:45;;;;;;;4.60;1.90;;;;;;;12.69;72.86;99490.27;104647;1274;61210;-25
2022/05/09 02:42:14;;;;;;;2.40;1.70;;;;;;;12.57;73.06;99494.39;104640;1274;62127;-25
2022/05/09 02:44:43;;;;;;;4.70;2.10;;;;;;;12.36;73.78;99499.95;104902;1274;75459;-25
2022/05/09 02:47:13;;;;;;;3.20;2.30;;;;;;;12.15;74.68;99501.46;104646;1274;74008;-25
2022/05/09 02:49:42;;;;;;;1.50;1.40;;;;;;;11.96;76.09;99503.30;104694;1274;74638;-25
2022/05/09 02:52:12;;;;;;;2.80;1.60;;;;;;;12.46;74.86;99504.73;104609;1274;62130;-25
2022/05/09 02:54:41;;;;;;;3.10;1.60;;;;;;;12.99;72.32;99504.16;104801;1274;61839;-25
2022/05/09 02:57:09;;;;;;;8.40;3.50;;;;;;;12.96;72.17;99511.73;104859;1274;73481;-25
2022/05/09 02:59:42;;;;;;;2.40;1.80;;;;;;;12.73;73.38;99511.75;104863;1274;75781;-25
2022/05/09 03:02:11;;;;;;;3.10;2.00;;;;;;;12.56;74.03;99517.23;104841;1274;74134;-25
2022/05/09 03:04:41;;;;;;;4.50;2.50;;;;;;;12.19;75.84;99517.27;104656;1274;62394;-25
2022/05/09 03:07:18;;;;;;;3.00;2.00;;;;;;;12.05;76.68;99524.69;104642;1274;61058;-25
2022/05/09 03:09:56;;;;;;;3.60;2.30;;;;;;;11.80;77.84;99530.61;104478;1277;75469;-26
2022/05/09 03:12:27;;;;;;;3.60;2.60;;;;;;;12.35;76.43;99528.72;104621;1274;74897;-27
2022/05/09 03:14:56;;;;;;;3.70;2.70;;;;;;;12.28;76.30;99532.77;104604;1274;74283;-27
2022/05/09 03:17:25;;;;;;;4.00;2.70;;;;;;;12.05;77.18;99535.16;104769;1274;61235;-25
2022/05/09 03:19:55;;;;;;;4.10;2.90;;;;;;;12.01;77.52;99541.03;104864;1274;61082;-26
2022/05/09 03:22:28;;;;;;;3.20;2.50;;;;;;;11.88;77.99;99548.63;104582;1274;76034;-25
2022/05/09 03:24:57;;;;;;;3.50;2.20;;;;;;;11.82;78.76;99551.88;104670;1275;75023;-25
2022/05/09 03:27:26;;;;;;;3.90;2.40;;;;;;;12.11;77.65;99553.24;104714;1274;73755;-25
2022/05/09 03:29:55;;;;;;;5.30;3.10;;;;;;;12.30;76.73;99555.23;104696;1274;61076;-26
2022/05/09 03:32:24;;;;;;;4.10;2.90;;;;;;;12.23;77.18;99560.02;104703;1274;61124;-27
2022/05/09 03:34:54;;;;;;;7.00;3.00;;;;;;;12.05;77.74;99559.98;104704;1277;75552;-25
2022/05/09 03:37:23;;;;;;;3.90;2.80;;;;;;;11.88;78.48;99565.66;104752;1274;76072;-27
2022/05/09 03:39:51;;;;;;;3.50;2.50;;;;;;;11.77;78.96;99571.44;104544;1274;74355;-27
2022/05/09 03:42:20;;;;;;;4.50;2.50;;;;;;;11.93;78.47;99570.88;104606;1274;61947;-27
2022/05/09 03:44:49;;;;;;;3.80;3.30;;;;;;;12.25;77.23;99574.08;104614;1274;61902;-25
2022/05/09 03:47:21;;;;;;;5.00;3.60;;;;;;;12.09;77.72;99573.75;104679;1274;75750;-26
2022/05/09 03:49:55;;;;;;;6.00;3.60;;;;;;;11.48;80.37;99569.77;104667;1274;75922;-26
2022/05/09 03:52:24;;;;;;;4.80;3.20;;;;;;;11.54;80.20;99572.95;104610;1274;74355;-26
2022/05/09 03:54:55;;;;;;;9.60;3.10;;;;;;;11.36;81.13;99569.29;104718;1274;61836;-26
2022/05/09 03:57:24;;;;;;;6.20;3.90;;;;;;;11.69;79.81;99573.58;104772;1277;62092;-26
2022/05/09 03:59:53;;;;;;;7.30;4.10;;;;;;;11.67;79.34;99575.28;104721;1275;75529;-26
2022/05/09 04:02:26;;;;;;;6.40;4.30;;;;;;;11.41;80.56;99574.46;104673;1274;76008;-26
2022/05/09 04:04:55;;;;;;;5.10;3.50;;;;;;;11.28;80.81;99572.48;104730;1274;73280;-26
2022/05/09 04:07:24;;;;;;;3.60;2.70;;;;;;;11.27;81.04;99579.23;104660;1274;62056;-26
2022/05/09 04:09:53;;;;;;;5.80;4.10;;;;;;;11.41;80.52;99589.23;104553;1274;335410;-26
2022/05/09 04:12:22;;;;;;;12.00;5.90;;;;;;;11.85;79.03;99598.48;104715;1274;75541;-26
2022/05/09 04:17:39;;;;;;;6.60;3.40;;;;;;;11.63;79.28;99606.56;104832;1274;74392;-26
2022/05/09 04:20:09;;;;;;;5.80;3.50;;;;;;;11.59;79.47;99603.88;104710;1274;62063;-26
2022/05/09 04:22:42;;;;;;;6.00;3.80;;;;;;;11.74;78.68;99610.23;104564;1274;62066;-25
2022/05/09 04:25:15;;;;;;;9.00;4.80;;;;;;;11.46;79.28;99604.19;104673;1274;74497;-26
2022/05/09 04:27:44;;;;;;;7.10;3.80;;;;;;;11.67;78.45;99600.55;104684;1274;76130;-25
2022/05/09 04:30:16;;;;;;;4.00;3.00;;;;;;;11.64;78.52;99607.52;104621;1274;74295;-25
2022/05/09 04:32:44;;;;;;;3.70;3.20;;;;;;;11.68;78.11;99612.80;104386;1277;62107;-25
2022/05/09 04:35:21;;;;;;;4.40;2.90;;;;;;;11.91;77.27;99611.52;104774;1274;61044;-25
2022/05/09 04:37:52;;;;;;;4.30;3.40;;;;;;;12.51;74.69;99608.79;104579;1274;74707;-26
2022/05/09 04:40:30;;;;;;;3.60;3.00;;;;;;;12.33;74.54;99612.30;104594;1274;76100;-25
2022/05/09 04:42:59;;;;;;;4.10;3.40;;;;;;;12.15;75.61;99617.02;104521;1274;74387;-25
2022/05/09 04:45:29;;;;;;;5.30;3.90;;;;;;;11.81;75.99;99622.94;104635;1274;62512;-25
2022/05/09 04:47:58;;;;;;;5.60;4.30;;;;;;;11.76;76.26;99625.38;104621;1274;61163;-25
2022/05/09 04:50:27;;;;;;;16.90;8.10;;;;;;;12.02;75.09;99625.10;104748;1274;77021;-25
2022/05/09 04:52:56;;;;;;;8.50;5.00;;;;;;;12.01;75.56;99632.52;104586;1274;75021;-25
2022/05/09 04:55:26;;;;;;;5.40;3.40;;;;;;;12.09;74.56;99636.65;104854;1274;74492;-25
2022/05/09 04:57:56;;;;;;;5.30;4.10;;;;;;;11.86;75.33;99638.19;104904;1274;61643;-25
2022/05/09 05:00:26;;;;;;;5.00;3.60;;;;;;;12.32;74.00;99644.41;104704;1274;61255;-25
2022/05/09 05:02:55;;;;;;;4.20;3.50;;;;;;;12.55;72.49;99640.84;104388;1274;74576;-25
2022/05/09 05:05:25;;;;;;;9.30;4.30;;;;;;;12.52;72.15;99641.46;104666;1274;74729;-25
2022/05/09 05:07:55;;;;;;;9.20;3.90;;;;;;;12.63;71.39;99649.04;104501;1274;74420;-25
2022/05/09 05:10:30;;;;;;;7.10;3.80;;;;;;;12.60;71.47;99646.86;104843;1274;61790;-25
2022/05/09 05:12:59;;;;;;;5.00;3.90;;;;;;;12.59;71.18;99648.04;104592;1274;61102;-25
2022/05/09 05:15:29;;;;;;;3.90;3.00;;;;;;;12.40;71.37;99651.77;104675;1275;75651;-25
2022/05/09 05:17:58;;;;;;;5.60;3.40;;;;;;;12.25;71.75;99652.11;104427;1274;75824;-25
2022/05/09 05:20:27;;;;;;;4.80;3.00;;;;;;;12.19;72.28;99655.01;104633;1274;73394;-25
2022/05/09 05:22:56;;;;;;;3.10;2.40;;;;;;;12.33;71.54;99654.96;104676;1274;63689;-25
2022/05/09 05:25:27;;;;;;;6.20;3.30;;;;;;;12.69;70.59;99656.63;104781;1274;61124;-25
2022/05/09 05:27:57;;;;;;;6.00;2.90;;;;;;;12.59;69.74;99655.52;104670;1274;74438;-25
2022/05/09 05:30:25;;;;;;;5.00;2.80;;;;;;;12.48;70.04;99654.48;104648;1274;75992;-24
2022/05/09 05:32:56;;;;;;;8.80;3.50;;;;;;;12.48;69.56;99651.15;104910;1274;73134;-24
2022/05/09 05:35:25;;;;;;;5.20;3.00;;;;;;;12.30;70.00;99664.75;104937;1274;61121;-25
2022/05/09 05:37:55;;;;;;;3.90;2.90;;;;;;;12.44;69.02;99667.83;104732;1274;62106;-25
2022/05/09 05:40:24;;;;;;;6.10;2.50;;;;;;;12.42;69.05;99673.91;104841;1274;75521;-25
2022/05/09 05:42:53;;;;;;;7.20;3.40;;;;;;;12.71;67.98;99673.73;104880;1274;75943;-25
2022/05/09 05:45:22;;;;;;;5.20;3.70;;;;;;;12.54;68.54;99670.89;104730;1274;74887;-24
2022/05/09 05:47:51;;;;;;;4.80;3.20;;;;;;;12.31;69.05;99675.15;104655;1274;62052;-25
2022/05/09 05:50:21;;;;;;;5.50;2.90;;;;;;;12.91;67.96;99672.63;104779;1274;61030;-25
2022/05/09 05:52:50;;;;;;;5.40;3.00;;;;;;;13.22;66.24;99678.86;104582;1277;74611;-25
2022/05/09 05:55:19;;;;;;;2.30;2.00;;;;;;;13.31;65.17;99683.54;104656;1274;76126;-25
2022/05/09 05:57:49;;;;;;;4.00;2.50;;;;;;;12.93;65.91;99688.34;104637;1275;74329;-26
2022/05/09 06:00:21;;;;;;;3.90;2.70;;;;;;;13.00;65.40;99686.85;104648;1274;61147;-25
2022/05/09 06:02:51;;;;;;;6.10;3.10;;;;;;;13.55;64.21;99691.84;104429;1277;61872;-25
2022/05/09 06:05:19;;;;;;;4.80;2.70;;;;;;;13.16;65.13;99694.34;104754;1274;75556;-25
2022/05/09 06:07:52;;;;;;;4.20;3.00;;;;;;;13.54;63.67;99696.30;104892;1274;76025;-24
2022/05/09 06:10:21;;;;;;;7.50;2.40;;;;;;;13.84;62.96;99698.45;104719;1274;74278;-25
2022/05/09 06:12:49;;;;;;;5.70;3.20;;;;;;;14.30;61.43;99696.30;104674;1274;62032;-24
2022/05/09 06:15:32;;;;;;;6.00;3.20;;;;;;;14.29;61.02;99698.65;104711;1274;61240;-27
2022/05/09 06:18:08;;;;;;;4.50;3.20;;;;;;;14.41;61.04;99700.98;104650;1277;73499;-25
2022/05/09 06:20:37;;;;;;;3.50;2.80;;;;;;;14.22;60.51;99700.34;104701;1274;76050;-24
2022/05/09 06:23:06;;;;;;;2.80;2.40;;;;;;;14.20;60.51;99707.15;104624;1274;74199;-27
2022/05/09 06:25:35;;;;;;;4.60;2.60;;;;;;;13.99;60.44;99702.80;104684;1274;61673;-24
2022/05/09 06:28:05;;;;;;;58.10;4.30;;;;;;;14.47;59.52;99703.14;104691;1274;62256;-26
2022/05/09 06:30:34;;;;;;;11.20;3.50;;;;;;;14.77;59.04;99705.92;104630;1274;75512;-24
2022/05/09 06:33:02;;;;;;;4.40;3.10;;;;;;;14.21;59.48;99700.95;104777;1274;74996;-25
2022/05/09 06:35:40;;;;;;;6.00;2.60;;;;;;;14.28;59.82;99705.25;104858;1274;74406;-24
2022/05/09 06:38:09;;;;;;;4.50;2.30;;;;;;;14.56;57.88;99704.77;104674;1277;62130;-26
2022/05/09 06:40:41;;;;;;;4.10;2.50;;;;;;;14.66;58.12;99705.00;104705;1274;61147;-27
2022/05/09 06:43:09;;;;;;;6.50;2.20;;;;;;;14.45;57.69;99702.77;104678;1274;75585;-26
2022/05/09 06:45:40;;;;;;;3.30;2.00;;;;;;;14.66;57.36;99709.80;104562;1277;76027;-27
2022/05/09 06:48:09;;;;;;;4.10;2.20;;;;;;;14.59;57.06;99707.10;104723;1274;72454;-25
2022/05/09 06:50:38;;;;;;;4.40;2.80;;;;;;;14.63;56.31;99710.26;104802;1274;61243;-25
2022/05/09 06:53:08;;;;;;;8.90;2.70;;;;;;;14.70;56.51;99711.77;104596;1274;61189;-25
2022/05/09 06:55:46;;;;;;;8.40;2.60;;;;;;;15.16;55.55;99718.05;104389;1274;75608;-25
2022/05/09 06:58:21;;;;;;;2.50;2.30;;;;;;;15.09;54.92;99721.39;104740;1275;76703;-25
2022/05/09 07:00:51;;;;;;;4.60;2.50;;;;;;;14.90;54.74;99719.78;104766;1274;74294;-24
2022/05/09 07:03:20;;;;;;;3.00;1.90;;;;;;;15.00;54.94;99724.36;104721;1274;62152;-25
2022/05/09 07:05:51;;;;;;;3.10;1.70;;;;;;;15.50;53.38;99728.27;104930;1274;61166;-25
2022/05/09 07:08:22;;;;;;;2.70;1.90;;;;;;;15.55;51.45;99730.64;104834;1274;75598;-25
2022/05/09 07:10:59;;;;;;;6.20;2.30;;;;;;;14.58;53.30;99737.64;104684;1274;75799;-24
2022/05/09 07:13:41;;;;;;;4.90;2.10;;;;;;;14.88;53.46;99743.63;104739;1274;73227;-24
2022/05/09 07:16:11;;;;;;;3.70;1.70;;;;;;;15.61;51.96;99739.35;104848;1274;61878;-25
2022/05/09 07:28:28;;;;;;;2.80;2.00;;;;;;;15.11;51.51;99739.58;104860;1274;75639;-26
2022/05/09 07:30:59;;;;;;;7.10;1.90;;;;;;;15.52;50.49;99746.45;104885;1274;74155;-26
2022/05/09 07:33:28;;;;;;;5.80;1.80;;;;;;;15.87;49.38;99751.83;104411;1277;61087;-26
2022/05/09 07:35:57;;;;;;;3.40;2.00;;;;;;;15.99;49.50;99744.98;104651;1274;62262;-26
2022/05/09 07:38:26;;;;;;;8.60;2.20;;;;;;;15.30;48.84;99745.95;104617;1274;75760;-26
2022/05/09 07:40:55;;;;;;;3.50;1.60;;;;;;;15.88;48.45;99752.63;104629;1274;76076;-26
2022/05/09 07:43:26;;;;;;;1.70;1.50;;;;;;;16.40;47.09;99751.65;104637;1277;74280;-26
2022/05/09 07:45:55;;;;;;;10.80;2.10;;;;;;;16.08;46.91;99748.35;104400;1274;61199;-27
2022/05/09 07:48:27;;;;;;;6.10;2.20;;;;;;;16.29;48.53;99755.84;104654;1274;62086;-26
2022/05/09 07:50:57;;;;;;;4.20;1.80;;;;;;;16.08;47.02;99755.34;104462;1274;74341;-26
2022/05/09 07:53:31;;;;;;;29.90;2.50;;;;;;;16.01;47.91;99750.75;104514;1275;76035;-26
2022/05/09 07:56:06;;;;;;;4.30;2.20;;;;;;;15.95;46.36;99753.40;104688;1274;74759;-26
2022/05/09 07:58:35;;;;;;;4.50;1.80;;;;;;;15.44;46.66;99759.04;104805;1274;61780;-26
2022/05/09 08:01:04;;;;;;;5.70;1.70;;;;;;;15.76;46.08;99754.41;104640;1277;61181;-26
2022/05/09 08:03:34;;;;;;;4.60;2.20;;;;;;;15.94;45.77;99758.95;104788;1274;74666;-26
2022/05/09 08:06:04;;;;;;;3.20;1.90;;;;;;;16.29;43.86;99759.41;104439;1276;74727;-27
2022/05/09 08:08:36;;;;;;;3.90;1.70;;;;;;;16.07;44.59;99758.41;104637;1274;73327;-26
2022/05/09 08:11:12;;;;;;;3.30;1.50;;;;;;;16.03;43.12;99753.50;104647;1274;61885;-26
2022/05/09 08:13:41;;;;;;;3.90;1.80;;;;;;;15.62;44.38;99751.15;104717;1274;62224;-26
2022/05/09 08:16:35;;;;;;;4.20;1.50;;;;;;;15.94;45.39;99763.83;104634;1274;75531;-26
2022/05/09 08:19:05;;;;;;;2.10;1.40;;;;;;;16.48;42.45;99761.10;104638;1274;76365;-26
2022/05/09 08:21:36;;;;;;;5.90;1.70;;;;;;;16.71;42.48;99764.58;104619;1277;74411;-26
2022/05/09 08:24:05;;;;;;;4.40;1.60;;;;;;;16.71;41.78;99759.75;104606;1274;61298;-26
2022/05/09 08:26:34;;;;;;;10.20;2.00;;;;;;;16.02;42.79;99761.55;104355;1277;62012;-26
2022/05/09 08:29:03;;;;;;;8.00;1.90;;;;;;;16.34;42.63;99764.81;104649;1274;74575;-27
2022/05/09 08:31:33;;;;;;;3.10;2.00;;;;;;;16.58;41.85;99767.48;104651;1277;75820;-26
2022/05/09 08:34:02;;;;;;;2.20;1.50;;;;;;;16.18;40.43;99767.79;104486;1274;74485;-26
2022/05/09 08:36:53;;;;;;;4.60;1.40;;;;;;;16.53;41.81;99770.61;104592;1274;61029;-26
2022/05/09 08:39:23;;;;;;;5.60;1.20;;;;;;;16.65;40.84;99772.45;104611;1274;61121;-24
2022/05/09 08:42:05;;;;;;;8.40;2.00;;;;;;;16.30;40.32;99771.73;104583;1277;75449;-25
2022/05/09 08:44:43;;;;;;;3.80;1.70;;;;;;;16.81;40.84;99776.20;104714;1274;75786;-26
2022/05/09 08:47:50;;;;;;;6.10;1.90;;;;;;;17.03;39.36;99780.13;104745;1275;74231;-26
2022/05/09 08:50:18;;;;;;;4.70;1.40;;;;;;;16.31;39.52;99778.99;104877;1274;61835;-26
2022/05/09 08:53:08;;;;;;;13.40;1.80;;;;;;;17.11;38.51;99782.08;104750;1275;61705;-26
2022/05/09 08:55:39;;;;;;;3.50;1.10;;;;;;;17.03;37.95;99777.94;104592;1277;75292;-26
2022/05/09 08:58:37;;;;;;;3.10;1.40;;;;;;;16.45;38.94;99783.64;104625;1277;76085;-27
2022/05/09 09:01:12;;;;;;;1.50;1.20;;;;;;;16.89;38.03;99781.42;104622;1277;74845;-26
2022/05/09 09:04:01;;;;;;;5.00;1.30;;;;;;;16.95;37.99;99782.63;104426;1278;61346;-26
2022/05/09 09:06:34;;;;;;;2.90;1.10;;;;;;;17.73;37.81;99788.66;104660;1277;61147;-27
2022/05/09 09:09:09;;;;;;;4.10;1.30;;;;;;;17.72;36.57;99790.18;104725;1277;75582;-26
2022/05/09 09:12:03;;;;;;;2.00;0.80;;;;;;;17.57;36.31;99787.09;104708;1277;74824;-26
2022/05/09 09:14:58;;;;;;;2.50;1.50;;;;;;;17.27;35.65;99782.08;104720;1277;74834;-26
2022/05/09 09:17:49;;;;;;;9.10;2.30;;;;;;;17.53;35.17;99784.69;104567;1277;62170;-26
2022/05/09 09:20:32;;;;;;;1.80;1.20;;;;;;;16.87;35.50;99785.42;104705;1277;61108;-26
2022/05/09 09:23:18;;;;;;;9.30;1.40;;;;;;;17.02;36.59;99789.79;104691;1277;75379;-24
2022/05/09 09:26:01;;;;;;;6.90;1.20;;;;;;;18.04;36.67;99789.50;104665;1277;76009;-25
2022/05/09 09:28:46;;;;;;;11.40;2.00;;;;;;;17.86;34.09;99793.40;104644;1277;74838;-26
2022/05/09 09:31:21;;;;;;;5.20;1.40;;;;;;;17.09;34.94;99789.82;104527;1277;62210;-25
2022/05/09 09:33:54;;;;;;;6.90;1.70;;;;;;;17.00;34.53;99789.09;104521;1277;61737;-26
2022/05/09 09:36:22;;;;;;;6.40;1.40;;;;;;;17.46;34.16;99785.58;104602;1277;74862;-25
2022/05/09 09:38:56;;;;;;;3.90;1.30;;;;;;;18.21;33.02;99781.34;104721;1277;76244;-25
2022/05/09 09:41:27;;;;;;;3.40;1.40;;;;;;;18.65;32.31;99783.47;104622;1277;74763;-25
2022/05/09 09:44:16;;;;;;;2.60;1.10;;;;;;;18.99;32.08;99782.59;104699;1277;61120;-25
2022/05/09 09:47:09;;;;;;;2.80;1.20;;;;;;;19.06;30.89;99789.30;104699;1277;61025;-26
2022/05/09 09:50:13;;;;;;;4.40;1.00;;;;;;;19.13;31.68;99789.80;104707;1277;75372;-26
2022/05/09 09:52:52;;;;;;;2.90;1.00;;;;;;;18.49;31.30;99788.98;104691;1277;74743;-27
2022/05/09 09:55:32;;;;;;;1.90;1.00;;;;;;;19.06;31.52;99784.09;104630;1277;73529;-26
2022/05/09 09:58:17;;;;;;;6.30;1.20;;;;;;;19.03;31.36;99786.30;104703;1274;61980;-26
2022/05/09 10:00:46;;;;;;;2.30;0.50;;;;;;;19.17;31.09;99783.23;104856;1274;62318;-26
2022/05/09 10:03:20;;;;;;;1.50;0.80;;;;;;;19.10;30.64;99785.86;104713;1274;75258;-26
2022/05/09 10:05:50;;;;;;;1.40;0.80;;;;;;;18.53;29.53;99788.12;104622;1277;76054;-29
2022/05/09 10:08:35;;;;;;;4.10;0.90;;;;;;;18.58;29.85;99784.20;104731;1277;74290;-26
2022/05/09 10:11:29;;;;;;;1.30;0.70;;;;;;;19.39;29.20;99779.63;104676;1277;62478;-27
2022/05/09 10:14:02;;;;;;;3.60;1.30;;;;;;;18.85;29.42;99783.01;104638;1277;61006;-26
2022/05/09 10:16:45;;;;;;;4.20;0.90;;;;;;;18.62;29.17;99784.84;104523;1277;74654;-26
2022/05/09 10:19:28;;;;;;;2.50;0.80;;;;;;;18.87;28.92;99778.45;104522;1274;76089;-26
2022/05/09 10:24:48;;;;;;;12.00;0.90;;;;;;;20.25;27.89;99786.08;104692;1277;61039;-26
2022/05/09 10:27:24;;;;;;;5.90;0.90;;;;;;;20.97;27.50;99781.63;104867;1274;61874;-26
2022/05/09 10:29:56;;;;;;;2.20;0.90;;;;;;;21.01;27.24;99782.07;104924;1274;75861;-26
2022/05/09 10:32:38;;;;;;;1.00;0.70;;;;;;;20.27;26.56;99778.41;104410;1277;74832;-26
2022/05/09 10:35:22;;;;;;;1.60;0.90;;;;;;;20.51;27.08;99779.67;104533;1277;74683;-26
2022/05/09 10:38:06;;;;;;;1.90;0.80;;;;;;;19.73;26.38;99776.04;104530;1275;61070;-26
2022/05/09 10:40:42;;;;;;;3.60;0.70;;;;;;;19.74;28.60;99772.34;104409;1277;61179;-26
2022/05/09 10:43:31;;;;;;;4.30;1.00;;;;;;;19.16;27.72;99769.40;104587;1274;74607;-26
2022/05/09 10:46:01;;;;;;;9.20;1.10;;;;;;;19.93;27.83;99768.12;104386;1277;74885;-26
2022/05/09 10:48:42;;;;;;;6.50;0.90;;;;;;;19.88;26.81;99765.92;104611;1275;74354;-26
2022/05/09 10:51:18;;;;;;;8.40;1.10;;;;;;;19.76;27.04;99768.13;104661;1274;61099;-26
2022/05/09 10:54:22;;;;;;;4.20;1.20;;;;;;;19.79;27.42;99762.34;104563;1274;62018;-25
2022/05/09 10:57:15;;;;;;;5.30;1.00;;;;;;;20.39;27.01;99767.41;104635;1274;75667;-25
2022/05/09 11:00:09;;;;;;;3.30;0.70;;;;;;;20.76;25.00;99761.42;104683;1274;76061;-25
2022/05/09 11:02:42;;;;;;;3.20;0.60;;;;;;;20.84;24.48;99759.27;104584;1274;73423;-26
2022/05/09 11:05:11;;;;;;;1.30;0.60;;;;;;;20.15;25.57;99756.88;104570;1277;62177;-26
2022/05/09 11:07:49;;;;;;;8.20;1.10;;;;;;;18.70;26.60;99752.68;104612;1274;61135;-26
2022/05/09 11:10:26;;;;;;;6.70;1.30;;;;;;;18.76;26.74;99751.93;104290;1277;75577;-26
2022/05/09 11:13:00;;;;;;;2.60;0.70;;;;;;;18.69;25.50;99759.75;104363;1277;76381;-25
2022/05/09 11:15:36;;;;;;;1.70;0.60;;;;;;;18.12;26.39;99758.69;104511;1274;74799;-25
2022/05/09 11:18:26;;;;;;;1.40;0.70;;;;;;;18.93;24.57;99754.23;104517;1274;62127;-26
2022/05/09 11:21:36;;;;;;;1.30;0.70;;;;;;;19.35;23.98;99748.87;104696;1274;61270;-26
2022/05/09 11:24:13;;;;;;;1.80;0.70;;;;;;;19.80;23.70;99753.92;104232;1278;75552;-26
2022/05/09 11:27:07;;;;;;;9.10;0.90;;;;;;;20.08;25.73;99752.96;104743;1274;76045;-26
2022/05/09 11:30:01;;;;;;;4.20;0.80;;;;;;;19.80;24.63;99746.56;104896;1274;74176;-25
2022/05/09 11:32:43;;;;;;;0.70;0.50;;;;;;;19.72;24.15;99754.13;104905;1274;62067;-26
2022/05/09 11:35:13;;;;;;;3.30;0.80;;;;;;;19.37;24.59;99748.02;104622;1274;61064;-26
2022/05/09 11:38:04;;;;;;;2.00;0.60;;;;;;;19.44;24.85;99745.17;104581;1277;74452;-26
2022/05/09 11:40:38;;;;;;;8.90;1.60;;;;;;;19.62;25.05;99737.92;104580;1274;75754;-25
2022/05/09 11:43:28;;;;;;;15.20;2.10;;;;;;;18.84;25.57;99733.23;104589;1275;74384;-25
2022/05/09 11:46:04;;;;;;;1.40;0.80;;;;;;;18.82;25.55;99743.02;104586;1274;61329;-26
2022/05/09 11:48:36;;;;;;;2.20;0.60;;;;;;;18.31;24.32;99744.80;104586;1274;61169;-26
2022/05/09 11:51:20;;;;;;;3.20;0.80;;;;;;;18.43;24.56;99739.70;104635;1278;74506;-26
2022/05/09 11:53:50;;;;;;;;;;;;;;;18.61;24.55;99740.14;104581;1274;74208;-26
2022/05/09 11:56:18;;;;;;;0.90;0.50;;;;;;;18.12;24.44;99736.70;104645;1274;74231;-26
2022/05/09 11:58:47;;;;;;;2.40;0.70;;;;;;;18.30;24.28;99736.87;104664;1274;62075;-26
2022/05/09 12:01:15;;;;;;;2.80;0.60;;;;;;;18.41;25.34;99737.04;104887;1274;61134;-26
2022/05/09 12:03:50;;;;;;;4.00;0.60;;;;;;;18.31;24.79;99728.60;104606;1274;75410;-24
2022/05/09 12:06:36;;;;;;;1.00;0.60;;;;;;;18.09;24.88;99736.61;104567;1275;75979;-24
2022/05/09 12:09:09;;;;;;;5.40;0.80;;;;;;;18.24;25.57;99731.10;104604;1277;74376;-25
2022/05/09 12:11:47;;;;;;;2.90;0.80;;;;;;;18.34;25.68;99736.95;104705;1275;62600;-25